Time,TemperatureF,DewpointF,PressureIn,WindDirection,WindDirectionDegrees,WindSpeedMPH,WindSpeedGustMPH,Humidity,HourlyPrecipIn,Conditions,Clouds,dailyrainin,SolarRadiationWatts/m^2,SoftwareType,DateUTC
2013-01-07 00:00:00,41.3,32.3,30.13,NW,314,3.0,6.0,70,0.00,,,0.00,0.00,VWS V14.01,2013-01-07 05:00:00,
2013-01-07 00:01:00,41.3,32.3,30.14,NW,319,4.0,4.0,70,0.00,,,0.00,0.00,VWS V14.01,2013-01-07 05:01:00,
2013-01-07 00:02:00,41.3,32.3,30.14,NNW,330,1.0,6.0,70,0.00,,,0.00,0.00,VWS V14.01,2013-01-07 05:02:00,
2013-01-07 00:04:00,41.3,32.3,30.14,NNW,329,5.0,6.0,70,0.00,,,0.00,0.00,VWS V14.01,2013-01-07 05:04:00,
2013-01-07 00:09:00,41.3,32.3,30.14,NW,307,1.0,5.0,70,0.00,,,0.00,0.00,VWS V14.01,2013-01-07 05:09:00,
2013-01-07 00:14:00,41.2,32.2,30.13,NW,322,4.0,5.0,70,0.00,,,0.00,0.00,VWS V14.01,2013-01-07 05:14:00,
2013-01-07 00:19:00,41.3,32.3,30.14,WNW,303,4.0,7.0,70,0.00,,,0.00,0.00,VWS V14.01,2013-01-07 05:19:00,
2013-01-07 00:24:00,41.2,32.2,30.14,NNW,329,5.0,5.0,70,0.00,,,0.00,0.00,VWS V14.01,2013-01-07 05:24:00,
2013-01-07 00:29:00,41.2,32.2,30.14,NW,317,0.0,6.0,70,0.00,,,0.00,0.00,VWS V14.01,2013-01-07 05:29:00,
2013-01-07 00:35:00,41.1,32.4,30.14,NW,325,4.0,5.0,71,0.00,,,0.00,0.00,VWS V14.01,2013-01-07 05:35:00,
2013-01-07 00:40:00,41.1,32.4,30.14,NNW,330,1.0,4.0,71,0.00,,,0.00,0.00,VWS V14.01,2013-01-07 05:40:00,
2013-01-07 00:45:00,41.0,32.3,30.14,NNW,338,0.0,7.0,71,0.00,,,0.00,0.00,VWS V14.01,2013-01-07 05:45:00,
2013-01-07 00:50:00,41.0,32.3,30.15,NNW,346,3.0,7.0,71,0.00,,,0.00,0.00,VWS V14.01,2013-01-07 05:50:00,
2013-01-07 00:55:00,41.0,33.7,30.14,NW,319,1.0,6.0,75,0.00,,,0.00,0.00,VWS V14.01,2013-01-07 05:55:00,
2013-01-07 01:00:00,41.0,32.3,30.15,NNW,340,1.0,8.0,71,0.00,,,0.00,0.00,VWS V14.01,2013-01-07 06:00:00,
2013-01-07 01:06:00,41.0,32.3,30.15,NW,319,6.0,9.0,71,0.00,,,0.00,0.00,VWS V14.01,2013-01-07 06:06:00,
2013-01-07 01:11:00,41.1,32.1,30.15,NNW,327,5.0,8.0,70,0.00,,,0.00,0.00,VWS V14.01,2013-01-07 06:11:00,
2013-01-07 01:16:00,41.1,32.1,30.15,NW,311,2.0,4.0,70,0.00,,,0.00,0.00,VWS V14.01,2013-01-07 06:16:00,
2013-01-07 01:21:00,41.1,32.1,30.16,NW,309,4.0,6.0,70,0.00,,,0.00,0.00,VWS V14.01,2013-01-07 06:21:00,
2013-01-07 01:26:00,41.0,32.0,30.16,NNW,329,3.0,4.0,70,0.00,,,0.00,0.00,VWS V14.01,2013-01-07 06:26:00,
2013-01-07 01:31:00,41.0,32.0,30.16,NNW,329,4.0,7.0,70,0.00,,,0.00,0.00,VWS V14.01,2013-01-07 06:31:00,
2013-01-07 01:37:00,40.9,31.9,30.16,NNW,336,5.0,5.0,70,0.00,,,0.00,0.00,VWS V14.01,2013-01-07 06:37:00,
2013-01-07 01:42:00,40.9,31.9,30.16,West,280,6.0,6.0,70,0.00,,,0.00,0.00,VWS V14.01,2013-01-07 06:42:00,
2013-01-07 01:47:00,40.8,31.8,30.16,NW,317,5.0,6.0,70,0.00,,,0.00,0.00,VWS V14.01,2013-01-07 06:47:00,
2013-01-07 01:52:00,40.7,31.7,30.17,NW,310,4.0,5.0,70,0.00,,,0.00,0.00,VWS V14.01,2013-01-07 06:52:00,
2013-01-07 01:57:00,40.7,31.7,30.17,NNW,334,6.0,8.0,70,0.00,,,0.00,0.00,VWS V14.01,2013-01-07 06:57:00,
2013-01-07 02:02:00,40.7,31.7,30.17,NW,309,5.0,8.0,70,0.00,,,0.00,0.00,VWS V14.01,2013-01-07 07:02:00,
2013-01-07 02:07:00,40.6,31.6,30.17,NNW,331,2.0,9.0,70,0.00,,,0.00,0.00,VWS V14.01,2013-01-07 07:07:00,
2013-01-07 02:12:00,40.6,31.6,30.17,NW,320,2.0,8.0,70,0.00,,,0.00,0.00,VWS V14.01,2013-01-07 07:12:00,
2013-01-07 02:17:00,40.5,31.5,30.17,WNW,303,1.0,7.0,70,0.00,,,0.00,0.00,VWS V14.01,2013-01-07 07:17:00,
2013-01-07 02:23:00,40.5,31.5,30.18,NW,314,3.0,4.0,70,0.00,,,0.00,0.00,VWS V14.01,2013-01-07 07:23:00,
2013-01-07 02:28:00,40.4,31.4,30.18,NNW,346,0.0,1.0,70,0.00,,,0.00,0.00,VWS V14.01,2013-01-07 07:28:00,
2013-01-07 02:33:00,40.3,31.3,30.18,NW,317,0.0,6.0,70,0.00,,,0.00,0.00,VWS V14.01,2013-01-07 07:33:00,
2013-01-07 02:38:00,40.2,31.6,30.18,NW,314,0.0,5.0,71,0.00,,,0.00,0.00,VWS V14.01,2013-01-07 07:38:00,
2013-01-07 02:43:00,40.1,31.5,30.18,NW,307,2.0,4.0,71,0.00,,,0.00,0.00,VWS V14.01,2013-01-07 07:43:00,
2013-01-07 02:49:00,40.0,31.4,30.19,WNW,296,0.0,8.0,71,0.00,,,0.00,0.00,VWS V14.01,2013-01-07 07:49:00,
2013-01-07 02:54:00,40.1,31.1,30.19,NW,313,5.0,11.0,70,0.00,,,0.00,0.00,VWS V14.01,2013-01-07 07:54:00,
2013-01-07 02:59:00,40.2,30.9,30.19,WNW,300,7.0,10.0,69,0.00,,,0.00,0.00,VWS V14.01,2013-01-07 07:59:00,
2013-01-07 03:04:00,40.3,31.0,30.19,NW,304,7.0,11.0,69,0.00,,,0.00,0.00,VWS V14.01,2013-01-07 08:04:00,
2013-01-07 03:09:00,40.3,31.0,30.19,NW,321,2.0,9.0,69,0.00,,,0.00,0.00,VWS V14.01,2013-01-07 08:09:00,
2013-01-07 03:14:00,40.3,31.0,30.19,NW,313,3.0,9.0,69,0.00,,,0.00,0.00,VWS V14.01,2013-01-07 08:14:00,
2013-01-07 03:19:00,40.2,30.9,30.19,NW,323,6.0,10.0,69,0.00,,,0.00,0.00,VWS V14.01,2013-01-07 08:19:00,
2013-01-07 03:24:00,40.2,30.9,30.19,NNW,329,6.0,10.0,69,0.00,,,0.00,0.00,VWS V14.01,2013-01-07 08:24:00,
2013-01-07 03:30:00,40.2,30.9,30.20,NW,315,11.0,11.0,69,0.00,,,0.00,0.00,VWS V14.01,2013-01-07 08:30:00,
2013-01-07 03:35:00,40.2,30.9,30.20,NW,308,10.0,11.0,69,0.00,,,0.00,0.00,VWS V14.01,2013-01-07 08:35:00,
2013-01-07 03:40:00,40.2,30.9,30.21,NNW,333,4.0,12.0,69,0.00,,,0.00,0.00,VWS V14.01,2013-01-07 08:40:00,
2013-01-07 03:45:00,40.2,30.9,30.21,NW,318,4.0,14.0,69,0.00,,,0.00,0.00,VWS V14.01,2013-01-07 08:45:00,
2013-01-07 03:50:00,40.2,30.9,30.21,NW,309,6.0,9.0,69,0.00,,,0.00,0.00,VWS V14.01,2013-01-07 08:50:00,
2013-01-07 03:55:00,40.1,30.8,30.21,WNW,299,0.0,5.0,69,0.00,,,0.00,0.00,VWS V14.01,2013-01-07 08:55:00,
2013-01-07 04:00:00,40.1,30.4,30.21,NNW,337,2.0,4.0,68,0.00,,,0.00,0.00,VWS V14.01,2013-01-07 09:00:00,
2013-01-07 04:05:00,40.0,30.3,30.21,NNW,332,8.0,14.0,68,0.00,,,0.00,0.00,VWS V14.01,2013-01-07 09:05:00,
2013-01-07 04:11:00,40.0,29.2,30.21,NNW,329,5.0,7.0,65,0.00,,,0.00,0.00,VWS V14.01,2013-01-07 09:11:00,
2013-01-07 04:16:00,40.0,29.2,30.21,NNW,338,11.0,13.0,65,0.00,,,0.00,0.00,VWS V14.01,2013-01-07 09:16:00,
2013-01-07 04:21:00,40.0,28.8,30.22,NNW,344,7.0,10.0,64,0.00,,,0.00,0.00,VWS V14.01,2013-01-07 09:21:00,
2013-01-07 04:26:00,40.0,28.8,30.22,NW,313,6.0,7.0,64,0.00,,,0.00,0.00,VWS V14.01,2013-01-07 09:26:00,
2013-01-07 04:31:00,39.9,28.7,30.23,NNW,336,5.0,8.0,64,0.00,,,0.00,0.00,VWS V14.01,2013-01-07 09:31:00,
2013-01-07 04:36:00,39.8,28.2,30.23,NNW,348,13.0,17.0,63,0.00,,,0.00,0.00,VWS V14.01,2013-01-07 09:36:00,
2013-01-07 04:41:00,39.9,28.0,30.24,North,350,7.0,11.0,62,0.00,,,0.00,0.00,VWS V14.01,2013-01-07 09:41:00,
2013-01-07 04:46:00,39.9,28.0,30.24,NW,309,1.0,6.0,62,0.00,,,0.00,0.00,VWS V14.01,2013-01-07 09:46:00,
2013-01-07 04:51:00,39.9,28.0,30.24,NW,324,3.0,6.0,62,0.00,,,0.00,0.00,VWS V14.01,2013-01-07 09:51:00,
2013-01-07 04:56:00,39.9,28.0,30.24,NW,322,3.0,10.0,62,0.00,,,0.00,0.00,VWS V14.01,2013-01-07 09:56:00,
2013-01-07 05:02:00,39.8,28.2,30.25,North,355,5.0,7.0,63,0.00,,,0.00,0.00,VWS V14.01,2013-01-07 10:02:00,
2013-01-07 05:07:00,39.8,28.2,30.25,NNW,340,7.0,11.0,63,0.00,,,0.00,0.00,VWS V14.01,2013-01-07 10:07:00,
2013-01-07 05:12:00,39.7,28.1,30.25,NW,325,4.0,8.0,63,0.00,,,0.00,0.00,VWS V14.01,2013-01-07 10:12:00,
2013-01-07 05:17:00,39.7,28.1,30.25,NNW,330,1.0,6.0,63,0.00,,,0.00,0.00,VWS V14.01,2013-01-07 10:17:00,
2013-01-07 05:22:00,39.6,28.1,30.25,NNW,329,9.0,10.0,63,0.00,,,0.00,0.00,VWS V14.01,2013-01-07 10:22:00,
2013-01-07 05:27:00,39.6,28.1,30.26,NW,325,3.0,8.0,63,0.00,,,0.00,0.00,VWS V14.01,2013-01-07 10:27:00,
2013-01-07 05:32:00,39.5,28.0,30.26,NW,306,1.0,7.0,63,0.00,,,0.00,0.00,VWS V14.01,2013-01-07 10:32:00,
2013-01-07 05:37:00,39.5,28.0,30.27,NNW,327,5.0,8.0,63,0.00,,,0.00,0.00,VWS V14.01,2013-01-07 10:37:00,
2013-01-07 05:42:00,39.4,28.2,30.26,NW,309,8.0,13.0,64,0.00,,,0.00,0.00,VWS V14.01,2013-01-07 10:42:00,
2013-01-07 05:48:00,39.4,28.2,30.26,NW,326,2.0,10.0,64,0.00,,,0.00,0.00,VWS V14.01,2013-01-07 10:48:00,
2013-01-07 05:53:00,39.3,28.2,30.26,WNW,290,9.0,15.0,64,0.00,,,0.00,0.00,VWS V14.01,2013-01-07 10:53:00,
2013-01-07 05:58:00,39.3,28.5,30.27,NW,308,7.0,13.0,65,0.00,,,0.00,0.00,VWS V14.01,2013-01-07 10:58:00,
2013-01-07 06:03:00,39.2,28.4,30.27,NW,312,4.0,16.0,65,0.00,,,0.00,0.00,VWS V14.01,2013-01-07 11:03:00,
2013-01-07 06:08:00,39.2,28.4,30.28,NW,325,11.0,12.0,65,0.00,,,0.00,0.00,VWS V14.01,2013-01-07 11:08:00,
2013-01-07 06:13:00,39.1,28.7,30.28,NNW,331,4.0,16.0,66,0.00,,,0.00,0.00,VWS V14.01,2013-01-07 11:13:00,
2013-01-07 06:18:00,39.1,28.7,30.28,NNW,331,6.0,9.0,66,0.00,,,0.00,0.00,VWS V14.01,2013-01-07 11:18:00,
2013-01-07 06:23:00,39.0,28.6,30.29,NNW,333,6.0,10.0,66,0.00,,,0.00,0.00,VWS V14.01,2013-01-07 11:23:00,
2013-01-07 06:28:00,38.9,28.9,30.29,North,360,5.0,9.0,67,0.00,,,0.00,0.00,VWS V14.01,2013-01-07 11:28:00,
2013-01-07 06:34:00,38.8,28.4,30.29,NNW,338,7.0,11.0,66,0.00,,,0.00,0.00,VWS V14.01,2013-01-07 11:34:00,
2013-01-07 06:39:00,38.8,28.4,30.29,NNW,338,5.0,9.0,66,0.00,,,0.00,0.00,VWS V14.01,2013-01-07 11:39:00,
2013-01-07 06:45:00,38.7,28.3,30.29,NW,325,3.0,3.0,66,0.00,,,0.00,0.00,VWS V14.01,2013-01-07 11:45:00,
2013-01-07 06:50:00,38.7,28.3,30.30,NNW,330,7.0,8.0,66,0.00,,,0.00,0.00,VWS V14.01,2013-01-07 11:50:00,
2013-01-07 06:56:00,38.7,28.0,30.30,NW,320,7.0,12.0,65,0.00,,,0.00,0.00,VWS V14.01,2013-01-07 11:56:00,
2013-01-07 07:01:00,38.6,27.9,30.30,NW,309,11.0,11.0,65,0.00,,,0.00,0.00,VWS V14.01,2013-01-07 12:01:00,
2013-01-07 07:06:00,38.6,27.9,30.31,NW,321,3.0,6.0,65,0.00,,,0.00,0.00,VWS V14.01,2013-01-07 12:06:00,
2013-01-07 07:11:00,38.6,27.9,30.31,NW,325,4.0,6.0,65,0.00,,,0.00,0.00,VWS V14.01,2013-01-07 12:11:00,
2013-01-07 07:16:00,38.5,27.8,30.31,NNW,335,4.0,5.0,65,0.00,,,0.00,0.00,VWS V14.01,2013-01-07 12:16:00,
2013-01-07 07:21:00,38.4,28.0,30.31,NW,313,9.0,9.0,66,0.00,,,0.00,0.00,VWS V14.01,2013-01-07 12:21:00,
2013-01-07 07:26:00,38.4,28.0,30.31,NNW,333,3.0,6.0,66,0.00,,,0.00,0.00,VWS V14.01,2013-01-07 12:26:00,
2013-01-07 07:31:00,38.3,28.0,30.31,NW,310,3.0,6.0,66,0.00,,,0.00,0.00,VWS V14.01,2013-01-07 12:31:00,
2013-01-07 07:37:00,38.3,28.0,30.31,NW,317,6.0,10.0,66,0.00,,,0.00,0.00,VWS V14.01,2013-01-07 12:37:00,
2013-01-07 07:42:00,38.2,27.9,30.32,NNW,330,7.0,9.0,66,0.00,,,0.00,0.00,VWS V14.01,2013-01-07 12:42:00,
2013-01-07 07:47:00,38.2,27.9,30.32,NNW,327,6.0,10.0,66,0.00,,,0.00,5.00,VWS V14.01,2013-01-07 12:47:00,
2013-01-07 07:52:00,38.2,27.9,30.33,NW,317,3.0,5.0,66,0.00,,,0.00,7.00,VWS V14.01,2013-01-07 12:52:00,
2013-01-07 07:57:00,38.1,28.1,30.33,WNW,295,3.0,8.0,67,0.00,,,0.00,9.00,VWS V14.01,2013-01-07 12:57:00,
2013-01-07 08:02:00,38.0,28.0,30.33,NW,313,2.0,9.0,67,0.00,,,0.00,12.00,VWS V14.01,2013-01-07 13:02:00,
2013-01-07 08:07:00,38.0,28.0,30.34,NW,316,2.0,7.0,67,0.00,,,0.00,14.00,VWS V14.01,2013-01-07 13:07:00,
2013-01-07 08:12:00,37.9,27.9,30.34,WNW,287,2.0,6.0,67,0.00,,,0.00,16.00,VWS V14.01,2013-01-07 13:12:00,
2013-01-07 08:17:00,37.9,27.9,30.35,NW,307,5.0,8.0,67,0.00,,,0.00,16.00,VWS V14.01,2013-01-07 13:17:00,
2013-01-07 08:22:00,38.0,28.0,30.35,NNW,330,3.0,9.0,67,0.00,,,0.00,23.00,VWS V14.01,2013-01-07 13:22:00,
2013-01-07 08:28:00,38.0,28.0,30.35,NW,325,4.0,7.0,67,0.00,,,0.00,30.00,VWS V14.01,2013-01-07 13:28:00,
2013-01-07 08:33:00,37.9,27.9,30.35,NW,315,2.0,8.0,67,0.00,,,0.00,30.00,VWS V14.01,2013-01-07 13:33:00,
2013-01-07 08:38:00,37.9,27.9,30.36,NW,313,5.0,9.0,67,0.00,,,0.00,33.00,VWS V14.01,2013-01-07 13:38:00,
2013-01-07 08:43:00,38.0,28.0,30.36,NNW,329,1.0,7.0,67,0.00,,,0.00,35.00,VWS V14.01,2013-01-07 13:43:00,
2013-01-07 08:48:00,38.0,28.0,30.37,NNW,336,5.0,10.0,67,0.00,,,0.00,46.00,VWS V14.01,2013-01-07 13:48:00,
2013-01-07 08:53:00,38.0,28.0,30.37,NNW,336,5.0,11.0,67,0.00,,,0.00,46.00,VWS V14.01,2013-01-07 13:53:00,
2013-01-07 08:58:00,38.0,28.0,30.37,NW,323,2.0,7.0,67,0.00,,,0.00,51.00,VWS V14.01,2013-01-07 13:58:00,
2013-01-07 09:03:00,38.1,28.1,30.38,NW,313,5.0,9.0,67,0.00,,,0.00,56.00,VWS V14.01,2013-01-07 14:03:00,
2013-01-07 09:08:00,38.2,27.9,30.38,NNW,331,5.0,14.0,66,0.00,,,0.00,62.00,VWS V14.01,2013-01-07 14:08:00,
2013-01-07 09:13:00,38.2,28.2,30.38,NW,313,6.0,8.0,67,0.00,,,0.00,76.00,VWS V14.01,2013-01-07 14:13:00,
2013-01-07 09:18:00,38.2,28.2,30.38,NW,322,2.0,8.0,67,0.00,,,0.00,77.00,VWS V14.01,2013-01-07 14:18:00,
2013-01-07 09:24:00,38.3,28.3,30.38,NW,313,2.0,7.0,67,0.00,,,0.00,91.00,VWS V14.01,2013-01-07 14:24:00,
2013-01-07 09:29:00,38.4,28.4,30.39,NW,311,0.0,1.0,67,0.00,,,0.00,123.00,VWS V14.01,2013-01-07 14:29:00,
2013-01-07 09:34:00,38.4,28.8,30.39,NW,312,3.0,6.0,68,0.00,,,0.00,118.00,VWS V14.01,2013-01-07 14:34:00,
2013-01-07 09:39:00,38.6,28.6,30.39,NW,311,1.0,6.0,67,0.00,,,0.00,111.00,VWS V14.01,2013-01-07 14:39:00,
2013-01-07 09:44:00,38.6,28.6,30.40,WNW,299,1.0,7.0,67,0.00,,,0.00,162.00,VWS V14.01,2013-01-07 14:44:00,
2013-01-07 09:49:00,38.6,28.2,30.40,NW,307,9.0,9.0,66,0.00,,,0.00,155.00,VWS V14.01,2013-01-07 14:49:00,
2013-01-07 09:54:00,38.7,28.0,30.40,WNW,299,1.0,11.0,65,0.00,,,0.00,137.00,VWS V14.01,2013-01-07 14:54:00,
2013-01-07 09:59:00,38.8,28.4,30.40,NW,322,6.0,6.0,66,0.00,,,0.00,171.00,VWS V14.01,2013-01-07 14:59:00,
2013-01-07 10:04:00,39.0,28.6,30.40,NW,311,3.0,6.0,66,0.00,,,0.00,109.00,VWS V14.01,2013-01-07 15:04:00,
2013-01-07 10:09:00,39.1,28.3,30.40,West,279,4.0,12.0,65,0.00,,,0.00,206.00,VWS V14.01,2013-01-07 15:09:00,
2013-01-07 10:14:00,39.3,28.5,30.40,NW,323,3.0,12.0,65,0.00,,,0.00,174.00,VWS V14.01,2013-01-07 15:14:00,
2013-01-07 10:20:00,39.8,29.0,30.41,NW,313,0.0,10.0,65,0.00,,,0.00,172.00,VWS V14.01,2013-01-07 15:20:00,
2013-01-07 10:25:00,39.8,28.6,30.40,NW,309,2.0,12.0,64,0.00,,,0.00,153.00,VWS V14.01,2013-01-07 15:25:00,
2013-01-07 10:30:00,39.7,28.5,30.41,WSW,253,0.0,9.0,64,0.00,,,0.00,318.00,VWS V14.01,2013-01-07 15:30:00,
2013-01-07 10:35:00,40.5,29.3,30.41,West,275,0.0,8.0,64,0.00,,,0.00,369.00,VWS V14.01,2013-01-07 15:35:00,
2013-01-07 10:40:00,40.8,28.8,30.41,NW,307,3.0,8.0,62,0.00,,,0.00,199.00,VWS V14.01,2013-01-07 15:40:00,
2013-01-07 10:45:00,40.8,28.8,30.41,NW,319,5.0,8.0,62,0.00,,,0.00,248.00,VWS V14.01,2013-01-07 15:45:00,
2013-01-07 10:50:00,40.8,28.8,30.42,NNW,336,5.0,10.0,62,0.00,,,0.00,327.00,VWS V14.01,2013-01-07 15:50:00,
2013-01-07 10:55:00,40.7,27.9,30.42,WNW,292,2.0,9.0,60,0.00,,,0.00,232.00,VWS V14.01,2013-01-07 15:55:00,
2013-01-07 11:00:00,40.6,27.8,30.41,NW,325,5.0,11.0,60,0.00,,,0.00,253.00,VWS V14.01,2013-01-07 16:00:00,
2013-01-07 11:05:00,40.6,28.2,30.41,NNW,335,6.0,11.0,61,0.00,,,0.00,427.00,VWS V14.01,2013-01-07 16:05:00,
2013-01-07 11:10:00,40.7,27.9,30.41,NNW,336,8.0,13.0,60,0.00,,,0.00,221.00,VWS V14.01,2013-01-07 16:10:00,
2013-01-07 11:15:00,40.6,28.2,30.41,West,269,2.0,8.0,61,0.00,,,0.00,262.00,VWS V14.01,2013-01-07 16:15:00,
2013-01-07 11:20:00,40.9,28.1,30.41,NW,318,2.0,8.0,60,0.00,,,0.00,236.00,VWS V14.01,2013-01-07 16:20:00,
2013-01-07 11:25:00,40.8,28.0,30.41,WNW,299,11.0,11.0,60,0.00,,,0.00,188.00,VWS V14.01,2013-01-07 16:25:00,
2013-01-07 11:30:00,40.5,27.3,30.41,NW,325,4.0,5.0,59,0.00,,,0.00,178.00,VWS V14.01,2013-01-07 16:30:00,
2013-01-07 11:35:00,40.3,27.5,30.41,NW,317,2.0,3.0,60,0.00,,,0.00,169.00,VWS V14.01,2013-01-07 16:35:00,
2013-01-07 11:40:00,40.2,27.4,30.41,WNW,283,0.0,1.0,60,0.00,,,0.00,171.00,VWS V14.01,2013-01-07 16:40:00,
2013-01-07 11:45:00,40.1,27.4,30.41,NNW,327,1.0,5.0,60,0.00,,,0.00,200.00,VWS V14.01,2013-01-07 16:45:00,
2013-01-07 11:51:00,40.1,27.8,30.40,WNW,286,0.0,2.0,61,0.00,,,0.00,197.00,VWS V14.01,2013-01-07 16:51:00,
2013-01-07 11:56:00,40.2,27.8,30.40,NW,313,5.0,8.0,61,0.00,,,0.00,225.00,VWS V14.01,2013-01-07 16:56:00,
2013-01-07 12:01:00,40.1,27.8,30.40,WNW,286,3.0,9.0,61,0.00,,,0.00,225.00,VWS V14.01,2013-01-07 17:01:00,
2013-01-07 12:06:00,40.2,27.4,30.40,NW,315,5.0,8.0,60,0.00,,,0.00,279.00,VWS V14.01,2013-01-07 17:06:00,
2013-01-07 12:11:00,40.2,27.4,30.39,NNW,329,4.0,5.0,60,0.00,,,0.00,229.00,VWS V14.01,2013-01-07 17:11:00,
2013-01-07 12:16:00,40.0,27.2,30.39,North,360,9.0,9.0,60,0.00,,,0.00,227.00,VWS V14.01,2013-01-07 17:16:00,
2013-01-07 12:21:00,39.9,27.2,30.39,NW,326,4.0,5.0,60,0.00,,,0.00,243.00,VWS V14.01,2013-01-07 17:21:00,
2013-01-07 12:26:00,39.9,27.2,30.39,NW,317,9.0,9.0,60,0.00,,,0.00,220.00,VWS V14.01,2013-01-07 17:26:00,
2013-01-07 12:31:00,39.7,27.0,30.39,NW,325,0.0,5.0,60,0.00,,,0.00,225.00,VWS V14.01,2013-01-07 17:31:00,
2013-01-07 12:36:00,39.7,27.0,30.39,NW,306,3.0,12.0,60,0.00,,,0.00,214.00,VWS V14.01,2013-01-07 17:36:00,
2013-01-07 12:41:00,39.8,27.5,30.39,NW,320,1.0,5.0,61,0.00,,,0.00,281.00,VWS V14.01,2013-01-07 17:41:00,
2013-01-07 12:47:00,40.4,27.6,30.39,NW,321,0.0,5.0,60,0.00,,,0.00,281.00,VWS V14.01,2013-01-07 17:47:00,
2013-01-07 12:52:00,40.8,28.0,30.39,WNW,289,2.0,4.0,60,0.00,,,0.00,443.00,VWS V14.01,2013-01-07 17:52:00,
2013-01-07 12:57:00,41.6,29.2,30.39,NNW,342,7.0,9.0,61,0.00,,,0.00,540.00,VWS V14.01,2013-01-07 17:57:00,
2013-01-07 13:02:00,42.2,28.9,30.39,North,355,5.0,7.0,59,0.00,,,0.00,534.00,VWS V14.01,2013-01-07 18:02:00,
2013-01-07 13:07:00,42.2,28.5,30.38,North,11,5.0,7.0,58,0.00,,,0.00,452.00,VWS V14.01,2013-01-07 18:07:00,
2013-01-07 13:12:00,42.1,28.8,30.38,NNW,336,13.0,13.0,59,0.00,,,0.00,519.00,VWS V14.01,2013-01-07 18:12:00,
2013-01-07 13:17:00,41.6,27.9,30.39,NW,311,3.0,6.0,58,0.00,,,0.00,155.00,VWS V14.01,2013-01-07 18:17:00,
2013-01-07 13:22:00,41.2,27.6,30.38,NW,312,5.0,8.0,58,0.00,,,0.00,436.00,VWS V14.01,2013-01-07 18:22:00,
2013-01-07 13:27:00,41.2,27.6,30.38,NW,322,4.0,11.0,58,0.00,,,0.00,302.00,VWS V14.01,2013-01-07 18:27:00,
2013-01-07 13:32:00,41.4,27.8,30.38,NW,325,2.0,9.0,58,0.00,,,0.00,483.00,VWS V14.01,2013-01-07 18:32:00,
2013-01-07 13:37:00,41.2,28.0,30.38,NW,309,1.0,4.0,59,0.00,,,0.00,220.00,VWS V14.01,2013-01-07 18:37:00,
2013-01-07 13:43:00,41.4,28.2,30.38,NW,304,1.0,5.0,59,0.00,,,0.00,404.00,VWS V14.01,2013-01-07 18:43:00,
2013-01-07 13:48:00,41.9,28.6,30.38,NW,323,3.0,4.0,59,0.00,,,0.00,408.00,VWS V14.01,2013-01-07 18:48:00,
2013-01-07 13:53:00,42.1,28.4,30.38,North,360,6.0,8.0,58,0.00,,,0.00,392.00,VWS V14.01,2013-01-07 18:53:00,
2013-01-07 13:58:00,41.8,28.1,30.38,North,355,5.0,8.0,58,0.00,,,0.00,369.00,VWS V14.01,2013-01-07 18:58:00,
2013-01-07 14:03:00,41.6,28.4,30.38,North,11,5.0,9.0,59,0.00,,,0.00,93.00,VWS V14.01,2013-01-07 19:03:00,
2013-01-07 14:08:00,41.1,27.5,30.38,NNW,338,0.0,5.0,58,0.00,,,0.00,130.00,VWS V14.01,2013-01-07 19:08:00,
2013-01-07 14:13:00,40.7,27.5,30.38,NNW,329,0.0,6.0,59,0.00,,,0.00,97.00,VWS V14.01,2013-01-07 19:13:00,
2013-01-07 14:18:00,40.6,27.4,30.38,NNW,329,0.0,3.0,59,0.00,,,0.00,338.00,VWS V14.01,2013-01-07 19:18:00,
2013-01-07 14:23:00,41.1,27.9,30.38,NNW,348,1.0,5.0,59,0.00,,,0.00,329.00,VWS V14.01,2013-01-07 19:23:00,
2013-01-07 14:28:00,41.7,28.0,30.38,North,355,0.0,2.0,58,0.00,,,0.00,325.00,VWS V14.01,2013-01-07 19:28:00,
2013-01-07 14:33:00,41.9,27.8,30.38,SW,222,0.0,4.0,57,0.00,,,0.00,325.00,VWS V14.01,2013-01-07 19:33:00,
2013-01-07 14:39:00,42.1,28.4,30.38,SW,223,0.0,0.0,58,0.00,,,0.00,292.00,VWS V14.01,2013-01-07 19:39:00,
2013-01-07 14:44:00,42.4,28.7,30.38,WNW,296,0.0,2.0,58,0.00,,,0.00,274.00,VWS V14.01,2013-01-07 19:44:00,
2013-01-07 14:49:00,42.4,28.3,30.38,NNW,336,3.0,5.0,57,0.00,,,0.00,264.00,VWS V14.01,2013-01-07 19:49:00,
2013-01-07 14:54:00,42.2,28.1,30.38,North,349,2.0,6.0,57,0.00,,,0.00,258.00,VWS V14.01,2013-01-07 19:54:00,
2013-01-07 14:59:00,42.0,27.9,30.38,North,350,0.0,1.0,57,0.00,,,0.00,236.00,VWS V14.01,2013-01-07 19:59:00,
2013-01-07 15:04:00,41.9,27.8,30.38,NNE,16,0.0,2.0,57,0.00,,,0.00,232.00,VWS V14.01,2013-01-07 20:04:00,
2013-01-07 15:09:00,41.9,27.8,30.38,NW,307,0.0,3.0,57,0.00,,,0.00,218.00,VWS V14.01,2013-01-07 20:09:00,
2013-01-07 15:14:00,41.7,28.0,30.38,NNW,339,4.0,7.0,58,0.00,,,0.00,200.00,VWS V14.01,2013-01-07 20:14:00,
2013-01-07 15:19:00,41.7,27.6,30.38,NNW,348,0.0,5.0,57,0.00,,,0.00,197.00,VWS V14.01,2013-01-07 20:19:00,
2013-01-07 15:24:00,41.5,27.8,30.38,NW,309,2.0,6.0,58,0.00,,,0.00,176.00,VWS V14.01,2013-01-07 20:24:00,
2013-01-07 15:29:00,41.3,27.6,30.38,NW,321,0.0,3.0,58,0.00,,,0.00,158.00,VWS V14.01,2013-01-07 20:29:00,
2013-01-07 15:34:00,41.1,27.5,30.38,NNE,17,4.0,5.0,58,0.00,,,0.00,151.00,VWS V14.01,2013-01-07 20:34:00,
2013-01-07 15:39:00,41.1,27.5,30.38,NNE,24,1.0,4.0,58,0.00,,,0.00,127.00,VWS V14.01,2013-01-07 20:39:00,
2013-01-07 15:44:00,41.0,27.8,30.38,NNE,30,2.0,2.0,59,0.00,,,0.00,125.00,VWS V14.01,2013-01-07 20:44:00,
2013-01-07 15:49:00,41.0,27.8,30.38,NNW,346,0.0,4.0,59,0.00,,,0.00,114.00,VWS V14.01,2013-01-07 20:49:00,
2013-01-07 15:54:00,41.1,27.9,30.38,NNW,341,1.0,5.0,59,0.00,,,0.00,100.00,VWS V14.01,2013-01-07 20:54:00,
2013-01-07 15:59:00,41.0,27.8,30.38,NW,322,0.0,3.0,59,0.00,,,0.00,83.00,VWS V14.01,2013-01-07 20:59:00,
2013-01-07 16:05:00,40.8,27.6,30.39,NW,322,0.0,2.0,59,0.00,,,0.00,67.00,VWS V14.01,2013-01-07 21:05:00,
2013-01-07 16:10:00,40.7,27.1,30.38,NW,322,0.0,0.0,58,0.00,,,0.00,49.00,VWS V14.01,2013-01-07 21:10:00,
2013-01-07 16:15:00,40.6,27.0,30.38,NW,322,0.0,1.0,58,0.00,,,0.00,44.00,VWS V14.01,2013-01-07 21:15:00,
2013-01-07 16:20:00,40.5,27.3,30.39,NW,322,0.0,1.0,59,0.00,,,0.00,35.00,VWS V14.01,2013-01-07 21:20:00,
2013-01-07 16:25:00,40.4,27.2,30.39,NW,322,0.0,0.0,59,0.00,,,0.00,30.00,VWS V14.01,2013-01-07 21:25:00,
2013-01-07 16:30:00,40.5,27.3,30.39,NW,322,0.0,1.0,59,0.00,,,0.00,28.00,VWS V14.01,2013-01-07 21:30:00,
2013-01-07 16:35:00,40.5,27.3,30.39,NW,322,0.0,0.0,59,0.00,,,0.00,23.00,VWS V14.01,2013-01-07 21:35:00,
2013-01-07 16:40:00,40.5,27.3,30.38,NW,322,0.0,0.0,59,0.00,,,0.00,19.00,VWS V14.01,2013-01-07 21:40:00,
2013-01-07 16:45:00,40.4,27.2,30.39,NW,322,0.0,0.0,59,0.00,,,0.00,16.00,VWS V14.01,2013-01-07 21:45:00,
2013-01-07 16:50:00,40.2,27.0,30.39,NW,322,0.0,0.0,59,0.00,,,0.00,12.00,VWS V14.01,2013-01-07 21:50:00,
2013-01-07 16:55:00,40.1,26.9,30.39,NW,322,0.0,0.0,59,0.00,,,0.00,9.00,VWS V14.01,2013-01-07 21:55:00,
2013-01-07 17:00:00,39.8,26.7,30.39,NW,322,0.0,0.0,59,0.00,,,0.00,7.00,VWS V14.01,2013-01-07 22:00:00,
2013-01-07 17:06:00,39.5,26.8,30.39,NW,322,0.0,0.0,60,0.00,,,0.00,0.00,VWS V14.01,2013-01-07 22:06:00,
2013-01-07 17:11:00,39.2,26.5,30.39,NW,322,0.0,0.0,60,0.00,,,0.00,0.00,VWS V14.01,2013-01-07 22:11:00,
2013-01-07 17:16:00,38.9,26.6,30.39,NW,322,0.0,0.0,61,0.00,,,0.00,0.00,VWS V14.01,2013-01-07 22:16:00,
2013-01-07 17:21:00,38.5,26.2,30.39,NW,322,0.0,0.0,61,0.00,,,0.00,0.00,VWS V14.01,2013-01-07 22:21:00,
2013-01-07 17:26:00,38.1,26.6,30.38,NW,322,0.0,0.0,63,0.00,,,0.00,0.00,VWS V14.01,2013-01-07 22:26:00,
2013-01-07 17:31:00,37.8,26.4,30.39,NW,322,0.0,0.0,63,0.00,,,0.00,0.00,VWS V14.01,2013-01-07 22:31:00,
2013-01-07 17:36:00,37.3,25.9,30.39,NW,322,0.0,0.0,63,0.00,,,0.00,0.00,VWS V14.01,2013-01-07 22:36:00,
2013-01-07 17:41:00,36.9,25.9,30.39,NW,322,0.0,0.0,64,0.00,,,0.00,0.00,VWS V14.01,2013-01-07 22:41:00,
2013-01-07 17:47:00,36.5,25.9,30.39,NW,322,0.0,0.0,65,0.00,,,0.00,0.00,VWS V14.01,2013-01-07 22:47:00,
2013-01-07 17:52:00,36.2,25.6,30.39,NW,322,0.0,0.0,65,0.00,,,0.00,0.00,VWS V14.01,2013-01-07 22:52:00,
2013-01-07 17:57:00,35.8,25.6,30.39,NW,322,0.0,0.0,66,0.00,,,0.00,0.00,VWS V14.01,2013-01-07 22:57:00,
2013-01-07 18:02:00,35.4,25.2,30.39,NW,322,0.0,0.0,66,0.00,,,0.00,0.00,VWS V14.01,2013-01-07 23:02:00,
2013-01-07 18:07:00,35.0,25.2,30.39,NW,322,0.0,0.0,67,0.00,,,0.00,0.00,VWS V14.01,2013-01-07 23:07:00,
2013-01-07 18:12:00,34.6,25.1,30.39,NW,322,0.0,0.0,68,0.00,,,0.00,0.00,VWS V14.01,2013-01-07 23:12:00,
2013-01-07 18:17:00,34.4,25.3,30.39,NW,322,0.0,0.0,69,0.00,,,0.00,0.00,VWS V14.01,2013-01-07 23:17:00,
2013-01-07 18:22:00,34.4,25.6,30.39,NW,322,0.0,0.0,70,0.00,,,0.00,0.00,VWS V14.01,2013-01-07 23:22:00,
2013-01-07 18:27:00,34.2,25.5,30.39,NW,322,0.0,0.0,70,0.00,,,0.00,0.00,VWS V14.01,2013-01-07 23:27:00,
2013-01-07 18:33:00,34.0,25.3,30.39,NW,322,0.0,0.0,70,0.00,,,0.00,0.00,VWS V14.01,2013-01-07 23:33:00,
2013-01-07 18:38:00,33.8,25.1,30.40,NW,322,0.0,0.0,70,0.00,,,0.00,0.00,VWS V14.01,2013-01-07 23:38:00,
2013-01-07 18:43:00,33.7,25.3,30.40,NW,322,0.0,0.0,71,0.00,,,0.00,0.00,VWS V14.01,2013-01-07 23:43:00,
2013-01-07 18:48:00,33.5,25.1,30.40,NW,322,0.0,0.0,71,0.00,,,0.00,0.00,VWS V14.01,2013-01-07 23:48:00,
2013-01-07 18:53:00,33.3,25.3,30.40,NW,322,0.0,0.0,72,0.00,,,0.00,0.00,VWS V14.01,2013-01-07 23:53:00,
2013-01-07 18:58:00,33.2,25.2,30.40,NW,322,0.0,0.0,72,0.00,,,0.00,0.00,VWS V14.01,2013-01-07 23:58:00,
2013-01-07 19:03:00,33.0,25.0,30.40,NW,322,0.0,0.0,72,0.00,,,0.00,0.00,VWS V14.01,2013-01-08 00:03:00,
2013-01-07 19:08:00,32.9,25.2,30.39,NW,322,0.0,0.0,73,0.00,,,0.00,0.00,VWS V14.01,2013-01-08 00:08:00,
2013-01-07 19:13:00,32.8,25.1,30.39,NW,322,0.0,0.0,73,0.00,,,0.00,0.00,VWS V14.01,2013-01-08 00:13:00,
2013-01-07 19:19:00,32.7,25.0,30.39,NW,322,0.0,0.0,73,0.00,,,0.00,0.00,VWS V14.01,2013-01-08 00:19:00,
2013-01-07 19:24:00,32.5,24.8,30.39,NW,322,0.0,0.0,73,0.00,,,0.00,0.00,VWS V14.01,2013-01-08 00:24:00,
2013-01-07 19:29:00,32.4,24.7,30.39,NW,322,0.0,0.0,73,0.00,,,0.00,0.00,VWS V14.01,2013-01-08 00:29:00,
2013-01-07 19:34:00,32.1,24.4,30.39,NW,322,0.0,0.0,73,0.00,,,0.00,0.00,VWS V14.01,2013-01-08 00:34:00,
2013-01-07 19:39:00,31.9,24.6,30.39,NW,322,0.0,0.0,74,0.00,,,0.00,0.00,VWS V14.01,2013-01-08 00:39:00,
2013-01-07 19:44:00,31.6,24.0,30.39,NW,322,0.0,0.0,73,0.00,,,0.00,0.00,VWS V14.01,2013-01-08 00:44:00,
2013-01-07 19:49:00,31.5,24.2,30.39,NW,322,0.0,0.0,74,0.00,,,0.00,0.00,VWS V14.01,2013-01-08 00:49:00,
2013-01-07 19:54:00,31.2,24.2,30.39,NW,322,0.0,0.0,75,0.00,,,0.00,0.00,VWS V14.01,2013-01-08 00:54:00,
2013-01-07 19:59:00,31.1,24.1,30.39,NW,322,0.0,0.0,75,0.00,,,0.00,0.00,VWS V14.01,2013-01-08 00:59:00,
2013-01-07 20:04:00,30.9,24.2,30.39,NW,322,0.0,0.0,76,0.00,,,0.00,0.00,VWS V14.01,2013-01-08 01:04:00,
2013-01-07 20:09:00,30.7,24.0,30.39,NW,322,0.0,0.0,76,0.00,,,0.00,0.00,VWS V14.01,2013-01-08 01:09:00,
2013-01-07 20:14:00,30.6,24.0,30.39,NW,322,0.0,0.0,76,0.00,,,0.00,0.00,VWS V14.01,2013-01-08 01:14:00,
2013-01-07 20:19:00,30.4,23.8,30.38,NW,322,0.0,0.0,76,0.00,,,0.00,0.00,VWS V14.01,2013-01-08 01:19:00,
2013-01-07 20:25:00,30.3,24.0,30.39,NW,322,0.0,0.0,77,0.00,,,0.00,0.00,VWS V14.01,2013-01-08 01:25:00,
2013-01-07 20:30:00,30.2,23.9,30.39,NW,322,0.0,0.0,77,0.00,,,0.00,0.00,VWS V14.01,2013-01-08 01:30:00,
2013-01-07 20:35:00,30.1,23.8,30.39,NW,322,0.0,0.0,77,0.00,,,0.00,0.00,VWS V14.01,2013-01-08 01:35:00,
2013-01-07 20:40:00,30.0,24.0,30.39,NW,322,0.0,0.0,78,0.00,,,0.00,0.00,VWS V14.01,2013-01-08 01:40:00,
2013-01-07 20:45:00,29.9,23.9,30.38,NW,322,0.0,0.0,78,0.00,,,0.00,0.00,VWS V14.01,2013-01-08 01:45:00,
2013-01-07 20:50:00,29.9,23.9,30.38,NW,322,0.0,0.0,78,0.00,,,0.00,0.00,VWS V14.01,2013-01-08 01:50:00,
2013-01-07 20:55:00,29.8,24.1,30.38,NW,322,0.0,0.0,79,0.00,,,0.00,0.00,VWS V14.01,2013-01-08 01:55:00,
2013-01-07 21:00:00,29.7,24.0,30.38,NW,322,0.0,0.0,79,0.00,,,0.00,0.00,VWS V14.01,2013-01-08 02:00:00,
2013-01-07 21:05:00,29.7,24.3,30.38,NW,322,0.0,0.0,80,0.00,,,0.00,0.00,VWS V14.01,2013-01-08 02:05:00,
2013-01-07 21:10:00,29.7,24.3,30.38,NW,322,0.0,0.0,80,0.00,,,0.00,0.00,VWS V14.01,2013-01-08 02:10:00,
2013-01-07 21:15:00,29.7,24.3,30.38,NW,322,0.0,1.0,80,0.00,,,0.00,0.00,VWS V14.01,2013-01-08 02:15:00,
2013-01-07 21:21:00,29.7,24.3,30.38,NW,322,0.0,1.0,80,0.00,,,0.00,0.00,VWS V14.01,2013-01-08 02:21:00,
2013-01-07 21:26:00,29.7,24.6,30.38,NW,322,0.0,0.0,81,0.00,,,0.00,0.00,VWS V14.01,2013-01-08 02:26:00,
2013-01-07 21:31:00,29.6,24.5,30.38,NW,322,0.0,0.0,81,0.00,,,0.00,0.00,VWS V14.01,2013-01-08 02:31:00,
2013-01-07 21:36:00,29.7,24.6,30.38,NW,322,0.0,0.0,81,0.00,,,0.00,0.00,VWS V14.01,2013-01-08 02:36:00,
2013-01-07 21:41:00,29.6,24.5,30.38,NW,322,0.0,0.0,81,0.00,,,0.00,0.00,VWS V14.01,2013-01-08 02:41:00,
2013-01-07 21:46:00,29.7,24.6,30.38,NW,322,0.0,0.0,81,0.00,,,0.00,0.00,VWS V14.01,2013-01-08 02:46:00,
2013-01-07 21:51:00,29.6,24.5,30.38,NW,322,0.0,0.0,81,0.00,,,0.00,0.00,VWS V14.01,2013-01-08 02:51:00,
2013-01-07 21:56:00,29.6,24.5,30.38,NW,322,0.0,0.0,81,0.00,,,0.00,0.00,VWS V14.01,2013-01-08 02:56:00,
2013-01-07 22:02:00,29.5,24.4,30.37,NW,322,0.0,0.0,81,0.00,,,0.00,0.00,VWS V14.01,2013-01-08 03:02:00,
2013-01-07 22:07:00,29.4,24.3,30.37,NW,322,0.0,0.0,81,0.00,,,0.00,0.00,VWS V14.01,2013-01-08 03:07:00,
2013-01-07 22:12:00,29.3,23.9,30.37,NW,322,0.0,0.0,80,0.00,,,0.00,0.00,VWS V14.01,2013-01-08 03:12:00,
2013-01-07 22:17:00,29.2,23.8,30.37,NW,322,0.0,0.0,80,0.00,,,0.00,0.00,VWS V14.01,2013-01-08 03:17:00,
2013-01-07 22:22:00,29.0,23.6,30.37,NW,322,0.0,0.0,80,0.00,,,0.00,0.00,VWS V14.01,2013-01-08 03:22:00,
2013-01-07 22:27:00,28.8,23.4,30.37,NW,322,0.0,0.0,80,0.00,,,0.00,0.00,VWS V14.01,2013-01-08 03:27:00,
2013-01-07 22:32:00,28.7,23.3,30.37,NW,322,0.0,0.0,80,0.00,,,0.00,0.00,VWS V14.01,2013-01-08 03:32:00,
2013-01-07 22:37:00,28.5,23.4,30.37,NW,322,0.0,0.0,81,0.00,,,0.00,0.00,VWS V14.01,2013-01-08 03:37:00,
2013-01-07 22:42:00,28.4,23.3,30.37,NW,322,0.0,0.0,81,0.00,,,0.00,0.00,VWS V14.01,2013-01-08 03:42:00,
2013-01-07 22:47:00,28.4,23.6,30.36,NW,322,0.0,0.0,82,0.00,,,0.00,0.00,VWS V14.01,2013-01-08 03:47:00,
2013-01-07 22:52:00,28.5,24.0,30.37,NW,322,0.0,0.0,83,0.00,,,0.00,0.00,VWS V14.01,2013-01-08 03:52:00,
2013-01-07 22:58:00,28.7,24.2,30.36,South,177,0.0,2.0,83,0.00,,,0.00,0.00,VWS V14.01,2013-01-08 03:58:00,
2013-01-07 23:03:00,29.0,24.5,30.37,South,177,0.0,0.0,83,0.00,,,0.00,0.00,VWS V14.01,2013-01-08 04:03:00,
2013-01-07 23:08:00,29.4,24.9,30.37,South,188,0.0,3.0,83,0.00,,,0.00,0.00,VWS V14.01,2013-01-08 04:08:00,
2013-01-07 23:13:00,29.7,25.2,30.37,South,188,0.0,2.0,83,0.00,,,0.00,0.00,VWS V14.01,2013-01-08 04:13:00,
2013-01-07 23:18:00,30.0,25.2,30.36,SSW,194,0.0,2.0,82,0.00,,,0.00,0.00,VWS V14.01,2013-01-08 04:18:00,
2013-01-07 23:23:00,30.3,25.5,30.37,SSW,194,0.0,2.0,82,0.00,,,0.00,0.00,VWS V14.01,2013-01-08 04:23:00,
2013-01-07 23:28:00,30.5,25.7,30.37,SSW,194,0.0,1.0,82,0.00,,,0.00,0.00,VWS V14.01,2013-01-08 04:28:00,
2013-01-07 23:33:00,30.7,25.6,30.37,SSW,194,0.0,1.0,81,0.00,,,0.00,0.00,VWS V14.01,2013-01-08 04:33:00,
2013-01-07 23:38:00,30.8,25.4,30.36,SSW,194,0.0,0.0,80,0.00,,,0.00,0.00,VWS V14.01,2013-01-08 04:38:00,
2013-01-07 23:43:00,30.9,25.5,30.36,SSW,194,0.0,1.0,80,0.00,,,0.00,0.00,VWS V14.01,2013-01-08 04:43:00,
2013-01-07 23:48:00,31.0,25.6,30.36,SSW,194,0.0,0.0,80,0.00,,,0.00,0.00,VWS V14.01,2013-01-08 04:48:00,
2013-01-07 23:53:00,31.0,25.6,30.36,SSW,194,0.0,0.0,80,0.00,,,0.00,0.00,VWS V14.01,2013-01-08 04:53:00,
2013-01-07 23:59:00,31.1,25.4,30.36,SSW,194,0.0,0.0,79,0.00,,,0.00,0.00,VWS V14.01,2013-01-08 04:59:00,